Danville, VA (24540)

12:46 PM EDT on August 30, 2015 (GMT -0400)
Druid Hills | | Change Station
CLOSE
Current Station
Personal Weather Station
Location: Danville, VA
Elevation: 499 ft
Nearby Weather Stations

Elev 499 ft 36.56 °N, 79.42 °W | Updated 12 minutes ago

Partly Cloudy
Partly Cloudy
87.4 °F
Feels Like 89 °F
N
2.2
Wind Variable Wind from ENE

Today
High -- | Low -- °F
--% Chance of Precip.
Yesterday
High -- | Low -- °F
Precip. -- in
6:46 AM 7:48 PM
Full, 99% visible
Pressure 30.15 in
Visibility 10.0 miles
Clouds Clear
Heat Index 89 °F
Dew Point 65 °F
Humidity 47%
Rainfall 0.00 in
Snow Depth Not available.
UV 9 out of 12
Pollen 8.40 out of 12
Air Quality Not available.
Flu Activity Not available.
METAR KDAN 301553Z AUTO 22004KT 10SM CLR 28/19 A3018 RMK AO2 SLP210 T02830189
Pressure 30.15 in
Visibility 10.0 miles
Clouds Clear
Heat Index 89 °F
Dew Point 65 °F
Humidity 47%
Rainfall 0.00 in
Snow Depth Not available.
UV 9 out of 12
Pollen 8.40 out of 12
Air Quality Not available.
Flu Activity Not available.
METAR KDAN 301553Z AUTO 22004KT 10SM CLR 28/19 A3018 RMK AO2 SLP210 T02830189

10-Day Weather Forecast

×

Almanac

Astronomy

Aug. 30, 2015 Rise Set
Actual Time
Civil Twilight
Nautical Twilight
Astronomical Twilight
Moon
Length of Visible Light
Length of Day
Tomorrow will be .
, % of the Moon is Illuminated

Today's Extremes

State Highs State Lows

Community

WunderPhotos

Upload Photos

1,851,008 photos uploaded!

WunderBlogs® & News

Nearby

Air Quality

  Air Quality AQ Index Pollutant
Not available.

Snow Depth

Station Depth Elevation

Earthquake Activity

City Distance Mag. Time & Date
Minimum magnitude displayed is 2.5.

Coastal Water Temperatures

Place Temperature

Stations

Nearby Weather Stations

Station Location Temp. Windchill Dew Point Humidity Wind Precip. Elev Updated Type